Terminal Aerodrome Forecast
Issued by NWS

Home | Current Version | Previous Version | Text Only | Print | Product List | Glossary On
Versions: 1 2 3 4 5 6 7 8 9 10 11 12 13 14
000
FTUS45 KRIW 011700
TAFWRL
TAF
KWRL 011735Z 0118/0218 34007KT P6SM VCSH SCT040 BKN060
      TEMPO 0118/0121 -SHRA BKN040
     FM020000 VRB05KT P6SM SCT060=

USA.gov is the U.S. government's official web portal to all federal, state and local government web resources and services.